sensor_id;sensor_type;location;lat;lon;timestamp;temperature;humidity
44851;DHT22;30583;48.714;9.386;2023-08-21T00:00:44;30.10;60.90
44851;DHT22;30583;48.714;9.386;2023-08-21T00:03:09;30.20;60.50
44851;DHT22;30583;48.714;9.386;2023-08-21T00:05:35;30.10;60.50
44851;DHT22;30583;48.714;9.386;2023-08-21T00:08:01;30.20;60.40
44851;DHT22;30583;48.714;9.386;2023-08-21T00:10:26;30.30;60.10
44851;DHT22;30583;48.714;9.386;2023-08-21T00:12:52;30.30;60.00
44851;DHT22;30583;48.714;9.386;2023-08-21T00:15:18;29.90;61.00
44851;DHT22;30583;48.714;9.386;2023-08-21T00:17:43;30.00;61.00
44851;DHT22;30583;48.714;9.386;2023-08-21T00:20:09;30.30;59.90
44851;DHT22;30583;48.714;9.386;2023-08-21T00:22:36;29.70;61.70
44851;DHT22;30583;48.714;9.386;2023-08-21T00:25:02;29.70;61.80
44851;DHT22;30583;48.714;9.386;2023-08-21T00:27:28;29.80;61.30
44851;DHT22;30583;48.714;9.386;2023-08-21T00:29:53;30.10;60.60
44851;DHT22;30583;48.714;9.386;2023-08-21T00:32:19;29.90;61.00
44851;DHT22;30583;48.714;9.386;2023-08-21T00:34:44;29.60;61.80
44851;DHT22;30583;48.714;9.386;2023-08-21T00:37:10;29.70;61.70
44851;DHT22;30583;48.714;9.386;2023-08-21T00:39:36;29.60;61.70
44851;DHT22;30583;48.714;9.386;2023-08-21T00:42:02;29.70;61.00
44851;DHT22;30583;48.714;9.386;2023-08-21T00:44:27;29.80;60.50
44851;DHT22;30583;48.714;9.386;2023-08-21T00:46:53;29.80;60.40
44851;DHT22;30583;48.714;9.386;2023-08-21T00:49:20;29.70;60.40
44851;DHT22;30583;48.714;9.386;2023-08-21T00:51:46;29.80;60.30
44851;DHT22;30583;48.714;9.386;2023-08-21T00:54:12;29.80;60.30
44851;DHT22;30583;48.714;9.386;2023-08-21T00:56:38;29.90;60.30
44851;DHT22;30583;48.714;9.386;2023-08-21T00:59:04;30.00;60.00
44851;DHT22;30583;48.714;9.386;2023-08-21T01:01:30;30.10;60.00
44851;DHT22;30583;48.714;9.386;2023-08-21T01:03:55;29.80;60.80
44851;DHT22;30583;48.714;9.386;2023-08-21T01:06:21;29.70;61.00
44851;DHT22;30583;48.714;9.386;2023-08-21T01:08:57;30.00;60.30
44851;DHT22;30583;48.714;9.386;2023-08-21T01:11:34;29.70;61.10
44851;DHT22;30583;48.714;9.386;2023-08-21T01:14:06;29.90;60.70
44851;DHT22;30583;48.714;9.386;2023-08-21T01:16:33;29.10;62.30
44851;DHT22;30583;48.714;9.386;2023-08-21T01:19:00;29.20;62.20
44851;DHT22;30583;48.714;9.386;2023-08-21T01:21:27;29.30;61.90
44851;DHT22;30583;48.714;9.386;2023-08-21T01:23:53;29.90;60.20
44851;DHT22;30583;48.714;9.386;2023-08-21T01:26:19;29.40;61.00
44851;DHT22;30583;48.714;9.386;2023-08-21T01:28:44;29.50;60.90
44851;DHT22;30583;48.714;9.386;2023-08-21T01:31:39;29.40;60.80
44851;DHT22;30583;48.714;9.386;2023-08-21T01:34:11;29.50;60.50
44851;DHT22;30583;48.714;9.386;2023-08-21T01:36:39;29.70;60.20
44851;DHT22;30583;48.714;9.386;2023-08-21T01:39:05;29.70;59.90
44851;DHT22;30583;48.714;9.386;2023-08-21T01:41:30;29.60;60.50
44851;DHT22;30583;48.714;9.386;2023-08-21T01:43:56;29.60;60.50
44851;DHT22;30583;48.714;9.386;2023-08-21T01:46:21;29.50;60.70
44851;DHT22;30583;48.714;9.386;2023-08-21T01:48:47;29.50;60.70
44851;DHT22;30583;48.714;9.386;2023-08-21T01:51:13;29.60;60.30
44851;DHT22;30583;48.714;9.386;2023-08-21T01:53:38;29.40;60.70
44851;DHT22;30583;48.714;9.386;2023-08-21T01:56:04;29.50;60.50
44851;DHT22;30583;48.714;9.386;2023-08-21T01:58:29;29.40;60.60
44851;DHT22;30583;48.714;9.386;2023-08-21T02:00:55;29.40;60.70
44851;DHT22;30583;48.714;9.386;2023-08-21T02:03:20;29.50;60.40
44851;DHT22;30583;48.714;9.386;2023-08-21T02:05:46;28.90;61.40
44851;DHT22;30583;48.714;9.386;2023-08-21T02:08:13;28.60;62.60
44851;DHT22;30583;48.714;9.386;2023-08-21T02:10:50;28.30;63.20
44851;DHT22;30583;48.714;9.386;2023-08-21T02:13:16;28.20;63.70
44851;DHT22;30583;48.714;9.386;2023-08-21T02:15:41;27.90;64.40
44851;DHT22;30583;48.714;9.386;2023-08-21T02:18:07;27.80;64.60
44851;DHT22;30583;48.714;9.386;2023-08-21T02:20:32;27.70;65.00
44851;DHT22;30583;48.714;9.386;2023-08-21T02:22:58;27.60;65.30
44851;DHT22;30583;48.714;9.386;2023-08-21T02:25:23;27.50;65.50
44851;DHT22;30583;48.714;9.386;2023-08-21T02:27:49;27.50;65.30
44851;DHT22;30583;48.714;9.386;2023-08-21T02:30:15;27.50;65.70
44851;DHT22;30583;48.714;9.386;2023-08-21T02:32:40;27.40;65.90
44851;DHT22;30583;48.714;9.386;2023-08-21T02:35:07;27.40;66.30
44851;DHT22;30583;48.714;9.386;2023-08-21T02:37:33;27.30;66.50
44851;DHT22;30583;48.714;9.386;2023-08-21T02:39:59;27.30;66.60
44851;DHT22;30583;48.714;9.386;2023-08-21T02:42:25;27.20;66.70
44851;DHT22;30583;48.714;9.386;2023-08-21T02:44:50;27.20;66.70
44851;DHT22;30583;48.714;9.386;2023-08-21T02:47:16;27.10;67.10
44851;DHT22;30583;48.714;9.386;2023-08-21T02:49:42;27.10;67.10
44851;DHT22;30583;48.714;9.386;2023-08-21T02:52:07;27.00;67.20
44851;DHT22;30583;48.714;9.386;2023-08-21T02:54:33;27.00;67.30
44851;DHT22;30583;48.714;9.386;2023-08-21T02:56:59;26.90;67.30
44851;DHT22;30583;48.714;9.386;2023-08-21T02:59:24;26.90;67.30
44851;DHT22;30583;48.714;9.386;2023-08-21T03:01:50;26.80;67.30
44851;DHT22;30583;48.714;9.386;2023-08-21T03:04:15;26.80;67.30
44851;DHT22;30583;48.714;9.386;2023-08-21T03:06:41;26.80;67.40
44851;DHT22;30583;48.714;9.386;2023-08-21T03:09:06;26.80;67.40
44851;DHT22;30583;48.714;9.386;2023-08-21T03:11:32;26.70;67.80
44851;DHT22;30583;48.714;9.386;2023-08-21T03:13:58;26.70;67.60
44851;DHT22;30583;48.714;9.386;2023-08-21T03:16:23;26.60;68.20
44851;DHT22;30583;48.714;9.386;2023-08-21T03:18:57;26.60;68.10
44851;DHT22;30583;48.714;9.386;2023-08-21T03:21:23;26.60;68.30
44851;DHT22;30583;48.714;9.386;2023-08-21T03:23:55;26.60;68.10
44851;DHT22;30583;48.714;9.386;2023-08-21T03:26:22;26.50;68.20
44851;DHT22;30583;48.714;9.386;2023-08-21T03:28:48;26.60;68.10
44851;DHT22;30583;48.714;9.386;2023-08-21T03:31:14;26.70;68.00
44851;DHT22;30583;48.714;9.386;2023-08-21T03:33:39;26.60;68.10
44851;DHT22;30583;48.714;9.386;2023-08-21T03:36:05;26.50;68.30
44851;DHT22;30583;48.714;9.386;2023-08-21T03:38:31;26.40;68.60
44851;DHT22;30583;48.714;9.386;2023-08-21T03:40:57;26.40;68.60
44851;DHT22;30583;48.714;9.386;2023-08-21T03:43:22;26.20;69.00
44851;DHT22;30583;48.714;9.386;2023-08-21T03:45:48;26.30;68.90
44851;DHT22;30583;48.714;9.386;2023-08-21T03:48:13;26.20;69.00
44851;DHT22;30583;48.714;9.386;2023-08-21T03:50:39;26.20;69.00
44851;DHT22;30583;48.714;9.386;2023-08-21T03:53:05;26.10;69.30
44851;DHT22;30583;48.714;9.386;2023-08-21T03:55:30;26.10;69.30
44851;DHT22;30583;48.714;9.386;2023-08-21T03:57:56;26.10;69.20
44851;DHT22;30583;48.714;9.386;2023-08-21T04:00:22;26.00;69.30
44851;DHT22;30583;48.714;9.386;2023-08-21T04:02:47;26.00;69.40
44851;DHT22;30583;48.714;9.386;2023-08-21T04:05:13;25.90;69.70
44851;DHT22;30583;48.714;9.386;2023-08-21T04:07:38;25.90;69.70
44851;DHT22;30583;48.714;9.386;2023-08-21T04:10:05;26.00;69.70
44851;DHT22;30583;48.714;9.386;2023-08-21T04:12:31;25.70;70.10
44851;DHT22;30583;48.714;9.386;2023-08-21T04:14:56;25.90;69.70
44851;DHT22;30583;48.714;9.386;2023-08-21T04:17:22;25.80;69.70
44851;DHT22;30583;48.714;9.386;2023-08-21T04:19:49;25.80;69.60
44851;DHT22;30583;48.714;9.386;2023-08-21T04:22:14;25.90;69.50
44851;DHT22;30583;48.714;9.386;2023-08-21T04:24:41;25.90;69.50
44851;DHT22;30583;48.714;9.386;2023-08-21T04:27:07;26.00;69.30
44851;DHT22;30583;48.714;9.386;2023-08-21T04:29:32;26.10;69.20
44851;DHT22;30583;48.714;9.386;2023-08-21T04:31:58;26.00;69.20
44851;DHT22;30583;48.714;9.386;2023-08-21T04:34:23;26.00;69.40
44851;DHT22;30583;48.714;9.386;2023-08-21T04:36:49;25.90;69.60
44851;DHT22;30583;48.714;9.386;2023-08-21T04:39:15;25.90;69.70
44851;DHT22;30583;48.714;9.386;2023-08-21T04:41:41;25.80;70.00
44851;DHT22;30583;48.714;9.386;2023-08-21T04:44:07;25.80;69.90
44851;DHT22;30583;48.714;9.386;2023-08-21T04:46:32;25.90;69.80
44851;DHT22;30583;48.714;9.386;2023-08-21T04:48:58;26.00;69.40
44851;DHT22;30583;48.714;9.386;2023-08-21T04:51:24;25.90;69.60
44851;DHT22;30583;48.714;9.386;2023-08-21T04:53:49;25.70;70.10
44851;DHT22;30583;48.714;9.386;2023-08-21T04:56:15;25.60;70.30
44851;DHT22;30583;48.714;9.386;2023-08-21T04:58:41;25.70;70.10
44851;DHT22;30583;48.714;9.386;2023-08-21T05:01:06;25.70;70.10
44851;DHT22;30583;48.714;9.386;2023-08-21T05:03:32;25.60;70.30
44851;DHT22;30583;48.714;9.386;2023-08-21T05:05:57;25.70;70.00
44851;DHT22;30583;48.714;9.386;2023-08-21T05:08:24;25.60;70.30
44851;DHT22;30583;48.714;9.386;2023-08-21T05:11:00;25.60;70.40
44851;DHT22;30583;48.714;9.386;2023-08-21T05:13:26;25.60;70.40
44851;DHT22;30583;48.714;9.386;2023-08-21T05:15:56;25.60;70.40
44851;DHT22;30583;48.714;9.386;2023-08-21T05:18:22;25.70;70.30
44851;DHT22;30583;48.714;9.386;2023-08-21T05:20:49;25.70;70.40
44851;DHT22;30583;48.714;9.386;2023-08-21T05:23:15;25.60;70.50
44851;DHT22;30583;48.714;9.386;2023-08-21T05:25:42;25.60;70.60
44851;DHT22;30583;48.714;9.386;2023-08-21T05:28:08;25.70;70.50
44851;DHT22;30583;48.714;9.386;2023-08-21T05:30:35;25.60;70.70
44851;DHT22;30583;48.714;9.386;2023-08-21T05:33:01;25.50;71.50
44851;DHT22;30583;48.714;9.386;2023-08-21T05:35:27;25.60;71.10
44851;DHT22;30583;48.714;9.386;2023-08-21T05:37:52;25.60;71.00
44851;DHT22;30583;48.714;9.386;2023-08-21T05:40:18;25.70;70.90
44851;DHT22;30583;48.714;9.386;2023-08-21T05:42:44;25.60;71.20
44851;DHT22;30583;48.714;9.386;2023-08-21T05:45:10;25.70;71.00
44851;DHT22;30583;48.714;9.386;2023-08-21T05:47:36;25.40;71.40
44851;DHT22;30583;48.714;9.386;2023-08-21T05:50:02;25.10;72.60
44851;DHT22;30583;48.714;9.386;2023-08-21T05:52:27;25.20;72.20
44851;DHT22;30583;48.714;9.386;2023-08-21T05:54:53;25.00;73.20
44851;DHT22;30583;48.714;9.386;2023-08-21T05:57:18;25.00;73.20
44851;DHT22;30583;48.714;9.386;2023-08-21T05:59:45;25.20;72.70
44851;DHT22;30583;48.714;9.386;2023-08-21T06:02:12;25.50;70.00
44851;DHT22;30583;48.714;9.386;2023-08-21T06:04:39;25.10;72.10
44851;DHT22;30583;48.714;9.386;2023-08-21T06:07:05;25.00;71.40
44851;DHT22;30583;48.714;9.386;2023-08-21T06:09:31;24.70;74.00
44851;DHT22;30583;48.714;9.386;2023-08-21T06:11:59;24.60;75.10
44851;DHT22;30583;48.714;9.386;2023-08-21T06:14:26;25.00;73.40
44851;DHT22;30583;48.714;9.386;2023-08-21T06:17:02;25.20;72.70
44851;DHT22;30583;48.714;9.386;2023-08-21T06:19:28;25.20;71.00
44851;DHT22;30583;48.714;9.386;2023-08-21T06:21:57;25.70;70.00
44851;DHT22;30583;48.714;9.386;2023-08-21T06:24:23;25.70;68.80
44851;DHT22;30583;48.714;9.386;2023-08-21T06:26:49;25.70;68.80
44851;DHT22;30583;48.714;9.386;2023-08-21T06:29:14;25.70;69.60
44851;DHT22;30583;48.714;9.386;2023-08-21T06:31:40;25.70;70.80
44851;DHT22;30583;48.714;9.386;2023-08-21T06:34:05;25.40;72.50
44851;DHT22;30583;48.714;9.386;2023-08-21T06:36:31;25.50;72.40
44851;DHT22;30583;48.714;9.386;2023-08-21T06:38:57;25.80;71.50
44851;DHT22;30583;48.714;9.386;2023-08-21T06:41:22;25.70;71.70
44851;DHT22;30583;48.714;9.386;2023-08-21T06:43:48;25.90;71.20
44851;DHT22;30583;48.714;9.386;2023-08-21T06:46:13;25.90;71.20
44851;DHT22;30583;48.714;9.386;2023-08-21T06:48:40;25.70;72.10
44851;DHT22;30583;48.714;9.386;2023-08-21T06:51:09;25.70;71.70
44851;DHT22;30583;48.714;9.386;2023-08-21T06:53:35;25.90;71.10
44851;DHT22;30583;48.714;9.386;2023-08-21T06:56:01;25.70;71.50
44851;DHT22;30583;48.714;9.386;2023-08-21T06:58:27;25.80;71.60
44851;DHT22;30583;48.714;9.386;2023-08-21T07:00:56;25.70;72.10
44851;DHT22;30583;48.714;9.386;2023-08-21T07:03:22;25.80;72.20
44851;DHT22;30583;48.714;9.386;2023-08-21T07:05:57;25.70;72.40
44851;DHT22;30583;48.714;9.386;2023-08-21T07:08:23;25.90;71.90
44851;DHT22;30583;48.714;9.386;2023-08-21T07:10:49;26.10;71.10
44851;DHT22;30583;48.714;9.386;2023-08-21T07:13:15;26.10;71.50
44851;DHT22;30583;48.714;9.386;2023-08-21T07:15:41;26.20;71.00
44851;DHT22;30583;48.714;9.386;2023-08-21T07:18:06;26.30;70.80
44851;DHT22;30583;48.714;9.386;2023-08-21T07:20:33;26.00;71.70
44851;DHT22;30583;48.714;9.386;2023-08-21T07:22:59;26.20;71.10
44851;DHT22;30583;48.714;9.386;2023-08-21T07:25:25;26.20;71.60
44851;DHT22;30583;48.714;9.386;2023-08-21T07:27:51;26.10;71.90
44851;DHT22;30583;48.714;9.386;2023-08-21T07:30:20;26.20;71.80
44851;DHT22;30583;48.714;9.386;2023-08-21T07:32:47;26.30;71.10
44851;DHT22;30583;48.714;9.386;2023-08-21T07:35:13;26.30;70.80
44851;DHT22;30583;48.714;9.386;2023-08-21T07:37:39;25.90;72.90
44851;DHT22;30583;48.714;9.386;2023-08-21T07:40:07;26.10;72.30
44851;DHT22;30583;48.714;9.386;2023-08-21T07:42:32;26.50;71.80
44851;DHT22;30583;48.714;9.386;2023-08-21T07:44:58;27.10;70.20
44851;DHT22;30583;48.714;9.386;2023-08-21T07:47:24;27.60;68.70
44851;DHT22;30583;48.714;9.386;2023-08-21T07:49:51;27.40;68.60
44851;DHT22;30583;48.714;9.386;2023-08-21T07:52:17;27.60;68.10
44851;DHT22;30583;48.714;9.386;2023-08-21T07:54:42;28.00;66.70
44851;DHT22;30583;48.714;9.386;2023-08-21T07:57:08;28.20;66.00
44851;DHT22;30583;48.714;9.386;2023-08-21T07:59:34;28.30;66.10
44851;DHT22;30583;48.714;9.386;2023-08-21T08:01:59;28.70;64.70
44851;DHT22;30583;48.714;9.386;2023-08-21T08:04:26;29.00;63.60
44851;DHT22;30583;48.714;9.386;2023-08-21T08:06:51;29.20;63.20
44851;DHT22;30583;48.714;9.386;2023-08-21T08:09:17;29.30;63.10
44851;DHT22;30583;48.714;9.386;2023-08-21T08:11:43;29.30;63.40
44851;DHT22;30583;48.714;9.386;2023-08-21T08:14:09;29.50;62.70
44851;DHT22;30583;48.714;9.386;2023-08-21T08:16:34;29.60;61.90
44851;DHT22;30583;48.714;9.386;2023-08-21T08:19:00;29.70;61.00
44851;DHT22;30583;48.714;9.386;2023-08-21T08:21:25;30.10;61.20
44851;DHT22;30583;48.714;9.386;2023-08-21T08:23:51;30.20;59.50
44851;DHT22;30583;48.714;9.386;2023-08-21T08:26:16;30.20;59.40
44851;DHT22;30583;48.714;9.386;2023-08-21T08:28:42;30.40;59.10
44851;DHT22;30583;48.714;9.386;2023-08-21T08:31:15;30.80;58.90
44851;DHT22;30583;48.714;9.386;2023-08-21T08:33:40;31.20;58.30
44851;DHT22;30583;48.714;9.386;2023-08-21T08:36:06;31.10;58.10
44851;DHT22;30583;48.714;9.386;2023-08-21T08:38:31;31.00;58.10
44851;DHT22;30583;48.714;9.386;2023-08-21T08:40:58;31.20;58.30
44851;DHT22;30583;48.714;9.386;2023-08-21T08:43:25;31.10;57.90
44851;DHT22;30583;48.714;9.386;2023-08-21T08:45:52;31.50;57.40
44851;DHT22;30583;48.714;9.386;2023-08-21T08:48:20;31.50;57.50
44851;DHT22;30583;48.714;9.386;2023-08-21T08:50:47;31.60;57.10
44851;DHT22;30583;48.714;9.386;2023-08-21T08:53:14;31.50;57.30
44851;DHT22;30583;48.714;9.386;2023-08-21T08:55:39;31.30;56.60
44851;DHT22;30583;48.714;9.386;2023-08-21T08:58:05;31.50;56.60
44851;DHT22;30583;48.714;9.386;2023-08-21T09:00:31;31.60;56.40
44851;DHT22;30583;48.714;9.386;2023-08-21T09:02:57;31.80;56.50
44851;DHT22;30583;48.714;9.386;2023-08-21T09:05:23;31.90;56.30
44851;DHT22;30583;48.714;9.386;2023-08-21T09:08:11;32.20;56.10
44851;DHT22;30583;48.714;9.386;2023-08-21T09:10:38;32.40;55.90
44851;DHT22;30583;48.714;9.386;2023-08-21T09:13:16;32.40;55.20
44851;DHT22;30583;48.714;9.386;2023-08-21T09:15:46;32.30;55.40
44851;DHT22;30583;48.714;9.386;2023-08-21T09:18:15;32.70;54.30
44851;DHT22;30583;48.714;9.386;2023-08-21T09:20:41;32.40;55.50
44851;DHT22;30583;48.714;9.386;2023-08-21T09:23:08;32.70;54.70
44851;DHT22;30583;48.714;9.386;2023-08-21T09:25:38;32.50;53.70
44851;DHT22;30583;48.714;9.386;2023-08-21T09:28:08;32.80;53.90
44851;DHT22;30583;48.714;9.386;2023-08-21T09:30:44;33.10;53.60
44851;DHT22;30583;48.714;9.386;2023-08-21T09:33:10;33.20;52.60
44851;DHT22;30583;48.714;9.386;2023-08-21T09:35:36;33.30;53.00
44851;DHT22;30583;48.714;9.386;2023-08-21T09:38:02;33.30;53.10
44851;DHT22;30583;48.714;9.386;2023-08-21T09:40:27;33.30;52.10
44851;DHT22;30583;48.714;9.386;2023-08-21T09:42:54;33.40;52.30
44851;DHT22;30583;48.714;9.386;2023-08-21T09:45:24;33.70;51.90
44851;DHT22;30583;48.714;9.386;2023-08-21T09:47:53;33.60;51.80
44851;DHT22;30583;48.714;9.386;2023-08-21T09:50:21;33.70;51.00
44851;DHT22;30583;48.714;9.386;2023-08-21T09:52:47;33.70;50.80
44851;DHT22;30583;48.714;9.386;2023-08-21T09:55:14;34.00;51.00
44851;DHT22;30583;48.714;9.386;2023-08-21T09:57:40;34.10;49.90
44851;DHT22;30583;48.714;9.386;2023-08-21T10:00:07;34.10;49.80
44851;DHT22;30583;48.714;9.386;2023-08-21T10:02:42;34.00;49.20
44851;DHT22;30583;48.714;9.386;2023-08-21T10:05:10;33.80;50.00
44851;DHT22;30583;48.714;9.386;2023-08-21T10:07:36;34.10;49.40
44851;DHT22;30583;48.714;9.386;2023-08-21T10:10:02;34.00;49.30
44851;DHT22;30583;48.714;9.386;2023-08-21T10:12:28;33.80;48.80
44851;DHT22;30583;48.714;9.386;2023-08-21T10:14:54;33.80;48.90
44851;DHT22;30583;48.714;9.386;2023-08-21T10:17:20;33.20;50.80
44851;DHT22;30583;48.714;9.386;2023-08-21T10:19:51;33.50;51.30
44851;DHT22;30583;48.714;9.386;2023-08-21T10:22:39;33.50;50.80
44851;DHT22;30583;48.714;9.386;2023-08-21T10:25:18;33.00;50.10
44851;DHT22;30583;48.714;9.386;2023-08-21T10:27:53;32.50;52.00
44851;DHT22;30583;48.714;9.386;2023-08-21T10:30:23;32.80;51.50
44851;DHT22;30583;48.714;9.386;2023-08-21T10:32:54;32.90;51.20
44851;DHT22;30583;48.714;9.386;2023-08-21T10:35:24;33.30;48.50
44851;DHT22;30583;48.714;9.386;2023-08-21T10:38:19;33.20;49.00
44851;DHT22;30583;48.714;9.386;2023-08-21T10:41:07;34.60;46.40
44851;DHT22;30583;48.714;9.386;2023-08-21T10:46:02;35.10;45.40
44851;DHT22;30583;48.714;9.386;2023-08-21T10:48:28;34.40;46.60
44851;DHT22;30583;48.714;9.386;2023-08-21T10:50:54;35.00;46.00
44851;DHT22;30583;48.714;9.386;2023-08-21T10:53:21;35.10;45.50
44851;DHT22;30583;48.714;9.386;2023-08-21T10:55:57;35.40;45.30
44851;DHT22;30583;48.714;9.386;2023-08-21T10:58:23;35.20;45.70
44851;DHT22;30583;48.714;9.386;2023-08-21T11:01:01;35.40;44.70
44851;DHT22;30583;48.714;9.386;2023-08-21T11:03:26;35.40;44.50
44851;DHT22;30583;48.714;9.386;2023-08-21T11:08:28;35.70;43.90
44851;DHT22;30583;48.714;9.386;2023-08-21T11:10:54;35.70;44.50
44851;DHT22;30583;48.714;9.386;2023-08-21T11:13:22;35.70;45.20
44851;DHT22;30583;48.714;9.386;2023-08-21T11:15:48;33.60;48.90
44851;DHT22;30583;48.714;9.386;2023-08-21T11:18:14;34.60;47.10
44851;DHT22;30583;48.714;9.386;2023-08-21T11:20:39;35.00;45.80
44851;DHT22;30583;48.714;9.386;2023-08-21T11:23:06;34.80;45.70
44851;DHT22;30583;48.714;9.386;2023-08-21T11:25:38;34.80;45.80
44851;DHT22;30583;48.714;9.386;2023-08-21T11:28:04;34.70;45.80
44851;DHT22;30583;48.714;9.386;2023-08-21T11:30:31;34.80;45.90
44851;DHT22;30583;48.714;9.386;2023-08-21T11:33:08;35.00;46.10
44851;DHT22;30583;48.714;9.386;2023-08-21T11:35:34;34.90;46.20
44851;DHT22;30583;48.714;9.386;2023-08-21T11:38:00;35.30;45.80
44851;DHT22;30583;48.714;9.386;2023-08-21T11:40:26;35.50;45.00
44851;DHT22;30583;48.714;9.386;2023-08-21T11:42:51;35.30;45.00
44851;DHT22;30583;48.714;9.386;2023-08-21T11:45:20;35.70;45.30
44851;DHT22;30583;48.714;9.386;2023-08-21T11:47:46;36.20;44.90
44851;DHT22;30583;48.714;9.386;2023-08-21T11:50:12;36.70;44.10
44851;DHT22;30583;48.714;9.386;2023-08-21T11:52:40;36.00;43.70
44851;DHT22;30583;48.714;9.386;2023-08-21T11:55:10;35.90;44.10
44851;DHT22;30583;48.714;9.386;2023-08-21T11:57:49;35.90;43.20
44851;DHT22;30583;48.714;9.386;2023-08-21T12:00:15;35.80;43.80
44851;DHT22;30583;48.714;9.386;2023-08-21T12:02:57;35.60;44.40
44851;DHT22;30583;48.714;9.386;2023-08-21T12:05:23;35.50;44.80
44851;DHT22;30583;48.714;9.386;2023-08-21T12:07:49;35.20;44.70
44851;DHT22;30583;48.714;9.386;2023-08-21T12:10:25;35.20;44.30
44851;DHT22;30583;48.714;9.386;2023-08-21T12:12:51;34.90;44.50
44851;DHT22;30583;48.714;9.386;2023-08-21T12:15:17;35.20;44.20
44851;DHT22;30583;48.714;9.386;2023-08-21T12:17:43;35.40;43.90
44851;DHT22;30583;48.714;9.386;2023-08-21T12:20:08;34.30;46.30
44851;DHT22;30583;48.714;9.386;2023-08-21T12:22:37;35.00;45.50
44851;DHT22;30583;48.714;9.386;2023-08-21T12:25:03;34.90;44.90
44851;DHT22;30583;48.714;9.386;2023-08-21T12:27:30;35.10;44.40
44851;DHT22;30583;48.714;9.386;2023-08-21T12:29:56;35.20;44.60
44851;DHT22;30583;48.714;9.386;2023-08-21T12:32:21;35.70;44.00
44851;DHT22;30583;48.714;9.386;2023-08-21T12:34:47;35.80;43.90
44851;DHT22;30583;48.714;9.386;2023-08-21T12:37:13;36.10;43.70
44851;DHT22;30583;48.714;9.386;2023-08-21T12:39:39;36.70;43.10
44851;DHT22;30583;48.714;9.386;2023-08-21T12:42:04;36.70;41.40
44851;DHT22;30583;48.714;9.386;2023-08-21T12:44:30;36.80;42.00
44851;DHT22;30583;48.714;9.386;2023-08-21T12:46:56;36.80;41.10
44851;DHT22;30583;48.714;9.386;2023-08-21T12:49:22;36.20;41.90
44851;DHT22;30583;48.714;9.386;2023-08-21T12:51:48;36.20;42.00
44851;DHT22;30583;48.714;9.386;2023-08-21T12:54:13;36.80;41.80
44851;DHT22;30583;48.714;9.386;2023-08-21T12:56:39;37.40;41.70
44851;DHT22;30583;48.714;9.386;2023-08-21T12:59:05;37.60;40.50
44851;DHT22;30583;48.714;9.386;2023-08-21T13:01:31;37.70;40.40
44851;DHT22;30583;48.714;9.386;2023-08-21T13:04:00;38.00;40.00
44851;DHT22;30583;48.714;9.386;2023-08-21T13:06:25;37.80;39.90
44851;DHT22;30583;48.714;9.386;2023-08-21T13:08:51;37.30;40.10
44851;DHT22;30583;48.714;9.386;2023-08-21T13:11:17;37.20;41.10
44851;DHT22;30583;48.714;9.386;2023-08-21T13:13:42;36.90;40.60
44851;DHT22;30583;48.714;9.386;2023-08-21T13:16:08;37.30;39.60
44851;DHT22;30583;48.714;9.386;2023-08-21T13:18:33;37.20;40.40
44851;DHT22;30583;48.714;9.386;2023-08-21T13:20:59;37.50;39.40
44851;DHT22;30583;48.714;9.386;2023-08-21T13:23:25;37.80;39.30
44851;DHT22;30583;48.714;9.386;2023-08-21T13:25:50;37.70;38.90
44851;DHT22;30583;48.714;9.386;2023-08-21T13:28:16;38.70;37.30
44851;DHT22;30583;48.714;9.386;2023-08-21T13:30:42;38.70;37.10
44851;DHT22;30583;48.714;9.386;2023-08-21T13:33:07;38.40;37.20
44851;DHT22;30583;48.714;9.386;2023-08-21T13:35:33;38.50;38.20
44851;DHT22;30583;48.714;9.386;2023-08-21T13:37:59;38.20;39.10
44851;DHT22;30583;48.714;9.386;2023-08-21T13:40:24;38.00;38.60
44851;DHT22;30583;48.714;9.386;2023-08-21T13:42:50;37.20;39.30
44851;DHT22;30583;48.714;9.386;2023-08-21T13:45:19;35.70;41.70
44851;DHT22;30583;48.714;9.386;2023-08-21T13:47:46;36.20;40.90
44851;DHT22;30583;48.714;9.386;2023-08-21T13:50:13;36.50;40.60
44851;DHT22;30583;48.714;9.386;2023-08-21T13:52:40;36.60;41.10
44851;DHT22;30583;48.714;9.386;2023-08-21T13:55:06;36.50;41.60
44851;DHT22;30583;48.714;9.386;2023-08-21T13:57:32;36.80;39.30
44851;DHT22;30583;48.714;9.386;2023-08-21T13:59:59;37.30;39.30
44851;DHT22;30583;48.714;9.386;2023-08-21T14:02:25;37.90;38.70
44851;DHT22;30583;48.714;9.386;2023-08-21T14:04:51;38.20;37.80
44851;DHT22;30583;48.714;9.386;2023-08-21T14:07:17;38.50;37.20
44851;DHT22;30583;48.714;9.386;2023-08-21T14:09:42;38.00;37.50
44851;DHT22;30583;48.714;9.386;2023-08-21T14:12:08;37.40;37.70
44851;DHT22;30583;48.714;9.386;2023-08-21T14:14:35;37.00;38.20
44851;DHT22;30583;48.714;9.386;2023-08-21T14:17:00;37.30;38.20
44851;DHT22;30583;48.714;9.386;2023-08-21T14:19:26;37.10;38.40
44851;DHT22;30583;48.714;9.386;2023-08-21T14:21:52;37.20;38.00
44851;DHT22;30583;48.714;9.386;2023-08-21T14:24:17;37.60;37.70
44851;DHT22;30583;48.714;9.386;2023-08-21T14:26:43;37.30;38.40
44851;DHT22;30583;48.714;9.386;2023-08-21T14:29:08;37.50;39.20
44851;DHT22;30583;48.714;9.386;2023-08-21T14:31:34;37.90;37.50
44851;DHT22;30583;48.714;9.386;2023-08-21T14:33:59;38.20;37.60
44851;DHT22;30583;48.714;9.386;2023-08-21T14:36:25;37.90;37.10
44851;DHT22;30583;48.714;9.386;2023-08-21T14:38:51;37.60;37.60
44851;DHT22;30583;48.714;9.386;2023-08-21T14:41:17;37.70;37.80
44851;DHT22;30583;48.714;9.386;2023-08-21T14:43:43;37.00;39.90
44851;DHT22;30583;48.714;9.386;2023-08-21T14:46:09;37.50;38.70
44851;DHT22;30583;48.714;9.386;2023-08-21T14:48:35;37.80;38.40
44851;DHT22;30583;48.714;9.386;2023-08-21T14:51:01;37.80;38.70
44851;DHT22;30583;48.714;9.386;2023-08-21T14:53:26;36.90;40.30
44851;DHT22;30583;48.714;9.386;2023-08-21T14:55:52;37.10;39.20
44851;DHT22;30583;48.714;9.386;2023-08-21T14:58:17;36.80;39.70
44851;DHT22;30583;48.714;9.386;2023-08-21T15:00:43;37.00;39.10
44851;DHT22;30583;48.714;9.386;2023-08-21T15:03:09;37.30;38.70
44851;DHT22;30583;48.714;9.386;2023-08-21T15:05:34;36.40;40.80
44851;DHT22;30583;48.714;9.386;2023-08-21T15:08:00;36.60;39.80
44851;DHT22;30583;48.714;9.386;2023-08-21T15:10:30;36.60;39.60
44851;DHT22;30583;48.714;9.386;2023-08-21T15:12:55;37.80;37.80
44851;DHT22;30583;48.714;9.386;2023-08-21T15:15:21;38.10;37.30
44851;DHT22;30583;48.714;9.386;2023-08-21T15:17:47;37.60;38.10
44851;DHT22;30583;48.714;9.386;2023-08-21T15:20:13;38.10;37.50
44851;DHT22;30583;48.714;9.386;2023-08-21T15:22:41;37.60;37.90
44851;DHT22;30583;48.714;9.386;2023-08-21T15:25:08;37.50;37.80
44851;DHT22;30583;48.714;9.386;2023-08-21T15:27:34;37.00;38.60
44851;DHT22;30583;48.714;9.386;2023-08-21T15:30:00;37.20;38.30
44851;DHT22;30583;48.714;9.386;2023-08-21T15:32:25;37.90;37.20